• Join FlightAware (Why Join?)
  • Login
  • US Flag 
03:43AM EDT


 

Airport Tracker/Info


-or-


 

Live Flight TrackerFlight Track Log ✈ N806UA ✈ 27-Apr-2012 ✈ KLAX - KDEN

Flight Track Log - Related Links

Times and Time Zones

All times are in EDT time to prevent confusion due to time zone crossing. See the N806UA flight status page for this flight to view local times or setup timezone preferences in your user account.

Time Position Orientation Groundspeed Altitude Reporting Facility
EDT Latitude Longitude Course Direction KTS MPH feet Rate Location/Type
10:55PM 33.9613 -118.3805 247° West  Level FlightAware Approximate
10:56PM 34.0170 -118.2664 243° Southwest  Level FlightAware Approximate
10:56PM 33.9206 -118.4969 202° Southwest 217 250 3,700  Level Los Angeles Center
10:57PM 33.8636 -118.5253 74° East 217 250 6,900 3,180 Climbing Los Angeles Center
10:58PM 33.8817 -118.4506 30° Northeast 78 90 10,100 2,640 Climbing Los Angeles Center
10:59PM 33.9600 -118.3953 56° Northeast 183 211 12,200 2,100 Climbing Los Angeles Center
11:00PM 34.0206 -118.2867 56° Northeast 275 316 14,400 2,280 Climbing Los Angeles Center
11:01PM 34.0828 -118.1753 56° Northeast 312 359 16,800 2,340 Climbing Los Angeles Center
11:02PM 34.1453 -118.0614 55° Northeast 372 428 19,100 2,340 Climbing Los Angeles Center
11:03PM 34.2139 -117.9425 55° Northeast 402 463 21,500 1,860 Climbing Los Angeles Center
11:04PM 34.2675 -117.8481 58° Northeast 418 481 22,900 1,560 Climbing Los Angeles Center
11:05PM 34.3403 -117.7086 56° Northeast 430 495 24,700 1,680 Climbing Los Angeles Center
11:06PM 34.4128 -117.5792 57° Northeast 448 516 26,300 1,560 Climbing Los Angeles Center
11:07PM 34.4853 -117.4442 55° Northeast 464 534 27,900 1,560 Climbing Los Angeles Center
11:08PM 34.5619 -117.3119 62° Northeast 469 540 29,500 1,500 Climbing Los Angeles Center
11:09PM 34.6258 -117.1639 63° Northeast 480 552 30,900 1,560 Climbing Los Angeles Center
11:10PM 34.6875 -117.0181 61° Northeast 480 552 32,700 2,580 Climbing Los Angeles Center
11:11PM 34.7575 -116.8647 63° Northeast 472 543 36,100 2,340 Climbing Los Angeles Center
11:12PM 34.8125 -116.7311 60° Northeast 453 521 37,400 1,140 Climbing Los Angeles Center
11:13PM 34.8714 -116.6047 63° Northeast 438 504 38,400 660 Climbing Los Angeles Center
11:14PM 34.9283 -116.4708 62° Northeast 431 496 38,800 300 Climbing Los Angeles Center
11:15PM 34.9892 -116.3317 63° Northeast 436 502 39,000 60 Climbing Los Angeles Center
11:16PM 35.0478 -116.1897 62° Northeast 449 517 39,000  Level Los Angeles Center
11:17PM 35.1103 -116.0475 64° Northeast 460 529 39,000  Level Los Angeles Center
11:18PM 35.1686 -115.9028 61° Northeast 471 542 39,000  Level Los Angeles Center
11:19PM 35.2328 -115.7603 65° Northeast 471 542 39,000  Level Los Angeles Center
11:20PM 35.2886 -115.6150 62° Northeast 471 542 39,000  Level Los Angeles Center
11:21PM 35.3467 -115.4822 63° Northeast 471 542 39,000  Level Los Angeles Center
11:22PM 35.4083 -115.3339 63° Northeast 471 542 39,000  Level Los Angeles Center
11:23PM 35.4697 -115.1853 62° Northeast 471 542 39,000  Level Los Angeles Center
11:24PM 35.5333 -115.0364 64° Northeast 471 542 39,000  Level Los Angeles Center
11:25PM 35.6006 -114.8694 63° Northeast 477 549 39,000  Level Los Angeles Center
11:26PM 35.6636 -114.7178 63° Northeast 487 560 39,000  Level Los Angeles Center
11:27PM 35.7264 -114.5683 63° Northeast 487 560 39,000  Level Los Angeles Center
11:28PM 35.7869 -114.4186 63° Northeast 487 560 39,000  Level Los Angeles Center
11:29PM 35.8494 -114.2686 64° Northeast 487 560 39,000  Level Los Angeles Center
11:30PM 35.9097 -114.1186 63° Northeast 487 560 39,000  Level Los Angeles Center
11:31PM 35.9719 -113.9658 65° Northeast 487 560 39,000  Level Los Angeles Center
11:32PM 36.0317 -113.8100 63° Northeast 487 560 39,000  Level Los Angeles Center
11:33PM 36.0953 -113.6567 63° Northeast 487 560 39,000  Level Los Angeles Center
11:34PM 36.1589 -113.5003 65° Northeast 492 566 39,000  Level Los Angeles Center
11:35PM 36.2158 -113.3467 64° Northeast 492 566 39,000  Level Los Angeles Center
11:36PM 36.2750 -113.1950 64° Northeast 492 566 39,000  Level Los Angeles Center
11:37PM 36.3358 -113.0408 65° Northeast 492 566 39,000  Level Los Angeles Center
11:38PM 36.3964 -112.8811 64° Northeast 497 572 39,000  Level Los Angeles Center
11:39PM 36.4586 -112.7211 64° Northeast 497 572 39,000  Level Los Angeles Center
11:40PM 36.5131 -112.5792 65° Northeast 497 572 39,000  Level Los Angeles Center
11:41PM 36.5731 -112.4214 65° Northeast 497 572 39,000  Level Los Angeles Center
11:43PM 36.6917 -112.1003 65° Northeast 515 593 39,000  Level Denver Center
11:44PM 36.7517 -111.9392 65° Northeast 515 593 39,000  Level Denver Center
11:45PM 36.8114 -111.7803 64° Northeast 515 593 39,000  Level Denver Center
11:46PM 36.8728 -111.6211 66° East 510 587 39,000  Level Denver Center
11:47PM 36.9300 -111.4617 66° East 510 587 39,000  Level Denver Center
11:48PM 36.9869 -111.3019 65° Northeast 505 581 39,000  Level Denver Center
11:49PM 37.0503 -111.1319 66° East 500 575 39,000  Level Denver Center
11:50PM 37.1067 -110.9742 65° Northeast 495 570 39,000  Level Denver Center
11:51PM 37.1628 -110.8239 66° East 484 557 39,000  Level Denver Center
11:52PM 37.2186 -110.6683 66° East 484 557 39,000  Level Denver Center
11:53PM 37.2722 -110.5150 61° Northeast 484 557 39,000  Level Denver Center
11:54PM 37.3356 -110.3697 59° Northeast 479 551 39,000  Level Denver Center
11:55PM 37.3917 -110.2500 57° Northeast 472 543 39,000  Level Denver Center
11:56PM 37.4786 -110.0792 61° Northeast 479 551 39,000  Level Denver Center
11:57PM 37.5369 -109.9486 62° Northeast 479 551 39,000  Level Denver Center
11:58PM 37.6019 -109.7972 60° Northeast 479 551 39,000  Level Denver Center
11:59PM 37.6753 -109.6353 60° Northeast 474 545 39,000  Level Denver Center
12:00AM 37.7439 -109.4836 61° Northeast 479 551 39,000  Level Denver Center
12:01AM 37.8039 -109.3469 62° Northeast 484 557 39,000  Level Denver Center
12:02AM 37.8703 -109.1917 61° Northeast 492 566 39,000  Level Denver Center
12:03AM 37.9450 -109.0208 60° Northeast 497 572 39,000  Level Denver Center
12:04AM 38.0150 -108.8681 64° Northeast 492 566 39,000  Level Denver Center
12:05AM 38.0722 -108.7194 62° Northeast 500 575 39,000  Level Denver Center
12:06AM 38.1467 -108.5425 61° Northeast 508 585 39,000  Level Denver Center
12:07AM 38.2139 -108.3858 62° Northeast 513 590 39,000  Level Denver Center
12:08AM 38.2747 -108.2419 61° Northeast 508 585 39,000  Level Denver Center
12:09AM 38.3439 -108.0797 62° Northeast 508 585 39,000  Level Denver Center
12:10AM 38.4169 -107.9011 62° Northeast 514 592 39,000  Level Denver Center
12:11AM 38.4856 -107.7381 62° Northeast 514 592 39,000  Level Denver Center
12:12AM 38.5478 -107.5906 62° Northeast 514 592 39,000  Level Denver Center
12:13AM 38.6222 -107.4111 62° Northeast 514 592 39,000  Level Denver Center
12:14AM 38.6881 -107.2497 62° Northeast 508 585 39,000  Level Denver Center
12:15AM 38.7517 -107.0961 63° Northeast 497 572 39,000  Level Denver Center
12:16AM 38.8067 -106.9553 62° Northeast 486 559 39,000 -60 Level Denver Center
12:17AM 38.8781 -106.7825 62° Northeast 495 570 38,900 -1,080 Descending Denver Center
12:18AM 38.9408 -106.6281 62° Northeast 495 570 36,900 -2,820 Descending Denver Center
12:19AM 39.0036 -106.4731 62° Northeast 511 588 33,300 -2,520 Descending Denver Center
12:20AM 39.0681 -106.3153 64° Northeast 511 588 31,900 -2,040 Descending Denver Center
12:21AM 39.1344 -106.1414 62° Northeast 496 571 29,300 -2,820 Descending Denver Center
12:22AM 39.1986 -105.9828 64° Northeast 486 559 26,300 -3,180 Descending Denver Center
12:23AM 39.2583 -105.8269 63° Northeast 486 559 23,000 -3,000 Descending Denver Center
12:24AM 39.3197 -105.6706 62° Northeast 486 559 20,300 -2,040 Descending Denver Center
12:25AM 39.3772 -105.5278 71° East 461 531 19,000 -840 Descending Denver Center
12:26AM 39.4114 -105.3981 73° East 441 507 18,700 -780 Descending Denver Center
12:27AM 39.4475 -105.2469 69° East 428 493 17,500 -1,200 Descending Denver Center
12:28AM 39.4878 -105.1119 70° East 412 474 16,300 -1,260 Descending Denver Center
12:29AM 39.5256 -104.9792 69° East 388 447 15,000 -1,560 Descending Denver Center
12:30AM 39.5614 -104.8572 68° East 370 426 13,200 -2,100 Descending Denver Center
12:31AM 39.6014 -104.7269 47° Northeast 360 414 10,800 -1,560 Descending Denver Center
12:32AM 39.6522 -104.6556 355° North 302 348 10,100 -1,080 Descending Denver Center
12:33AM 39.7128 -104.6619 358° North 217 250 8,700 -1,740 Descending Denver Center
12:34AM 39.7589 -104.6636 North 184 212 6,700 -1,320 Descending Denver Center
12:35AM 39.7983 -104.6625 North 146 168 6,100 -600 Descending Denver Center